Time;durP1;ratioP1;P1;durP2;ratioP2;P2;SDS_P1;SDS_P2;PMS_P1;PMS_P2;Temp;Humidity;BMP_temperature;BMP_pressure;BME280_temperature;BME280_humidity;BME280_pressure;Samples;Min_cycle;Max_cycle;Signal;HPM_P1;HPM_P2
2022/12/24 00:00:07;;;;;;;4.25;1.60;;;;;;;8.71;100.00;94920.41;5051091;28;20045;-75
2022/12/24 00:02:33;;;;;;;6.00;1.95;;;;;;;8.67;100.00;94920.16;5060875;28;20700;-75
2022/12/24 00:04:58;;;;;;;2.95;1.65;;;;;;;8.69;100.00;94938.25;5055852;28;20036;-75
2022/12/24 00:07:24;;;;;;;3.53;1.92;;;;;;;8.89;100.00;94920.81;5065410;28;20072;-75
2022/12/24 00:09:49;;;;;;;2.38;1.58;;;;;;;9.07;100.00;94922.81;5063750;28;20491;-75
2022/12/24 00:12:15;;;;;;;2.63;1.50;;;;;;;9.03;100.00;94927.03;5063984;28;20041;-75
2022/12/24 00:14:41;;;;;;;5.18;1.70;;;;;;;8.95;100.00;94935.47;5064874;28;20048;-75
2022/12/24 00:17:06;;;;;;;7.55;1.65;;;;;;;9.09;100.00;94936.44;5065115;28;20150;-75
2022/12/24 00:19:32;;;;;;;5.28;1.58;;;;;;;8.96;100.00;94942.28;5066495;28;20048;-75
2022/12/24 00:21:57;;;;;;;3.90;1.58;;;;;;;8.83;100.00;94944.50;5068615;28;20037;-75
2022/12/24 00:24:23;;;;;;;3.42;1.33;;;;;;;8.88;100.00;94956.00;5068564;28;20044;-75
2022/12/24 00:26:48;;;;;;;2.83;1.55;;;;;;;8.91;100.00;94950.22;5059115;28;20063;-75
2022/12/24 00:29:14;;;;;;;4.55;1.80;;;;;;;8.86;100.00;94947.63;5071017;28;20051;-75
2022/12/24 00:31:46;;;;;;;2.53;1.45;;;;;;;8.72;100.00;94963.97;5066900;28;20043;-75
2022/12/24 00:34:12;;;;;;;3.83;1.60;;;;;;;8.77;100.00;94961.28;5056742;28;20061;-75
2022/12/24 00:36:37;;;;;;;2.92;1.33;;;;;;;8.91;100.00;94961.50;5069974;28;20090;-75
2022/12/24 00:39:03;;;;;;;2.80;1.52;;;;;;;8.79;100.00;94948.72;5059994;28;20044;-75
2022/12/24 00:41:28;;;;;;;3.15;1.70;;;;;;;8.82;100.00;94953.41;5062361;28;20506;-75
2022/12/24 00:44:04;;;;;;;2.33;1.30;;;;;;;8.84;100.00;94971.50;5071771;28;20056;-75
2022/12/24 00:46:32;;;;;;;3.65;1.90;;;;;;;8.75;100.00;94984.41;5060887;28;20044;-75
2022/12/24 00:48:58;;;;;;;5.15;1.60;;;;;;;8.61;100.00;94981.56;5066659;28;20049;-75
2022/12/24 00:51:24;;;;;;;2.75;1.50;;;;;;;8.69;100.00;94985.47;5064117;28;20041;-75
2022/12/24 00:53:50;;;;;;;4.28;1.70;;;;;;;8.45;100.00;94999.22;5059937;28;20103;-75
2022/12/24 00:56:16;;;;;;;3.20;1.60;;;;;;;8.68;100.00;94989.16;5060566;28;20032;-75
2022/12/24 00:58:42;;;;;;;1.92;1.30;;;;;;;8.78;100.00;94989.09;5064179;28;20052;-75
2022/12/24 01:01:08;;;;;;;2.95;1.67;;;;;;;8.93;100.00;95000.56;5064437;28;20059;-75
2022/12/24 01:03:34;;;;;;;2.22;1.35;;;;;;;8.84;100.00;95009.00;5073887;28;20032;-75
2022/12/24 01:06:06;;;;;;;4.00;1.50;;;;;;;8.80;100.00;95007.19;5061379;28;20040;-75
2022/12/24 01:08:32;;;;;;;3.72;1.33;;;;;;;8.78;100.00;95004.06;5069830;28;20094;-75
2022/12/24 01:10:58;;;;;;;8.57;1.60;;;;;;;8.82;100.00;95016.38;5066486;28;20033;-75
2022/12/24 01:13:24;;;;;;;6.68;1.80;;;;;;;8.90;100.00;95032.63;5071941;28;20040;-75
2022/12/24 01:15:50;;;;;;;2.70;1.50;;;;;;;8.73;100.00;95031.09;5054918;28;20037;-76
2022/12/24 01:18:16;;;;;;;3.13;1.75;;;;;;;8.58;100.00;95031.94;5061323;28;20052;-75
2022/12/24 01:20:42;;;;;;;3.75;1.63;;;;;;;8.75;100.00;95030.81;5063802;28;20070;-75
2022/12/24 01:23:07;;;;;;;4.93;1.50;;;;;;;8.76;100.00;95022.69;5065506;28;20040;-75
2022/12/24 01:25:33;;;;;;;3.72;1.67;;;;;;;8.75;100.00;95026.38;5068076;28;20835;-75
2022/12/24 01:27:59;;;;;;;4.00;1.65;;;;;;;8.71;100.00;95025.34;5063337;28;20044;-75
2022/12/24 01:30:24;;;;;;;4.65;1.65;;;;;;;8.59;100.00;95022.22;5067277;28;20666;-75
2022/12/24 01:32:50;;;;;;;2.55;1.27;;;;;;;8.75;100.00;95036.88;5069409;28;20406;-75
2022/12/24 01:35:15;;;;;;;3.55;1.63;;;;;;;8.59;100.00;95043.22;5065823;28;20041;-74
2022/12/24 01:37:41;;;;;;;4.85;1.42;;;;;;;8.58;100.00;95045.06;5067519;28;20052;-75
2022/12/24 01:45:52;;;;;;;4.88;1.40;;;;;;;8.56;100.00;95064.75;5060277;28;20498;-75
2022/12/24 01:48:21;;;;;;;3.10;1.67;;;;;;;8.55;100.00;95063.16;5062210;28;20123;-74
2022/12/24 01:50:52;;;;;;;3.67;1.40;;;;;;;8.55;100.00;95068.41;5051883;28;20049;-74
2022/12/24 01:53:18;;;;;;;6.00;2.13;;;;;;;8.48;100.00;95079.19;5069631;28;20045;-74
2022/12/24 01:55:45;;;;;;;5.03;1.58;;;;;;;8.58;100.00;95078.38;5065501;28;20094;-74
2022/12/24 01:58:13;;;;;;;2.40;1.50;;;;;;;8.70;100.00;95071.00;5068513;28;20047;-75
2022/12/24 02:00:39;;;;;;;2.10;1.42;;;;;;;8.73;100.00;95080.94;5067286;28;20040;-74
2022/12/24 02:03:05;;;;;;;5.32;1.60;;;;;;;8.86;100.00;95073.56;5063593;28;20504;-74
2022/12/24 02:05:36;;;;;;;3.63;1.70;;;;;;;8.91;100.00;95079.56;5065618;28;20049;-74
2022/12/24 02:08:03;;;;;;;5.43;1.67;;;;;;;8.91;100.00;95082.19;5064254;28;20045;-74
2022/12/24 02:10:29;;;;;;;2.38;1.50;;;;;;;8.94;100.00;95081.66;5051421;28;20041;-75
2022/12/24 02:12:56;;;;;;;3.75;1.48;;;;;;;8.88;100.00;95076.69;5067608;28;20032;-74
2022/12/24 02:15:22;;;;;;;2.63;1.48;;;;;;;8.65;100.00;95084.13;5051308;28;20175;-74
2022/12/24 02:18:03;;;;;;;4.30;1.58;;;;;;;8.82;100.00;95086.41;5066919;28;20511;-74
2022/12/24 02:21:11;;;;;;;4.97;1.90;;;;;;;8.95;100.00;95087.69;5060605;28;20498;-74
2022/12/24 02:24:23;;;;;;;4.95;1.65;;;;;;;8.87;100.00;95085.63;5067644;28;20036;-75
2022/12/24 02:27:21;;;;;;;2.25;1.35;;;;;;;8.88;100.00;95093.25;5065301;28;20052;-74
2022/12/24 02:30:00;;;;;;;4.38;1.90;;;;;;;8.79;100.00;95090.38;5067889;28;20066;-74
2022/12/24 02:32:32;;;;;;;3.47;1.58;;;;;;;8.82;100.00;95095.09;5058608;28;20094;-75
2022/12/24 02:35:17;;;;;;;3.10;1.60;;;;;;;8.89;100.00;95100.03;5069117;28;20071;-74
2022/12/24 02:37:51;;;;;;;4.30;1.40;;;;;;;8.77;100.00;95092.47;5063482;28;20406;-74
2022/12/24 02:40:23;;;;;;;7.00;1.52;;;;;;;8.81;100.00;95098.75;5058601;28;20043;-74
2022/12/24 02:42:54;;;;;;;2.17;1.48;;;;;;;8.89;100.00;95115.00;5069899;28;20040;-74
2022/12/24 02:45:29;;;;;;;5.20;1.70;;;;;;;8.94;100.00;95112.38;5053471;28;20124;-74
2022/12/24 02:47:55;;;;;;;5.22;1.70;;;;;;;8.91;100.00;95120.78;5051818;28;20045;-74
2022/12/24 02:50:21;;;;;;;3.58;1.50;;;;;;;8.81;100.00;95114.50;5062292;28;20529;-74
2022/12/24 02:52:48;;;;;;;4.05;1.63;;;;;;;8.96;100.00;95120.75;5062186;28;20044;-74
2022/12/24 02:55:21;;;;;;;3.00;1.60;;;;;;;9.03;100.00;95131.75;5066935;28;20549;-74
2022/12/24 02:58:11;;;;;;;5.28;1.45;;;;;;;8.91;100.00;95144.41;5051116;28;20506;-74
2022/12/24 03:00:57;;;;;;;7.95;1.80;;;;;;;8.94;100.00;95146.50;5057218;28;20037;-74
2022/12/24 03:03:47;;;;;;;3.40;1.60;;;;;;;8.83;100.00;95136.03;5058924;28;20450;-73
2022/12/24 03:06:29;;;;;;;3.15;1.60;;;;;;;8.75;100.00;95135.75;5059014;28;20461;-74
2022/12/24 03:09:01;;;;;;;6.32;1.70;;;;;;;8.87;100.00;95141.53;5062773;28;20107;-74
2022/12/24 03:11:26;;;;;;;3.60;2.20;;;;;;;8.91;100.00;95139.16;5064273;28;20063;-74
2022/12/24 03:13:54;;;;;;;3.72;1.63;;;;;;;9.01;100.00;95136.50;5065544;28;20566;-74
2022/12/24 03:16:25;;;;;;;5.25;1.67;;;;;;;8.98;100.00;95140.44;5061199;28;20045;-74
2022/12/24 03:18:53;;;;;;;6.13;1.60;;;;;;;8.92;100.00;95145.97;5052714;28;20790;-74
2022/12/24 03:21:31;;;;;;;4.75;1.55;;;;;;;8.88;100.00;95155.41;5062986;28;20041;-74
2022/12/24 03:23:57;;;;;;;2.17;1.50;;;;;;;8.91;100.00;95144.41;5062831;28;20087;-74
2022/12/24 03:26:24;;;;;;;5.35;1.55;;;;;;;8.89;100.00;95151.75;5066483;28;20044;-74
2022/12/24 03:28:50;;;;;;;4.40;1.63;;;;;;;8.72;100.00;95147.59;5057622;28;20502;-74
2022/12/24 03:31:17;;;;;;;5.95;1.70;;;;;;;8.77;100.00;95123.97;5066818;28;20059;-74
2022/12/24 03:33:43;;;;;;;2.55;1.60;;;;;;;8.97;100.00;95138.09;5068970;28;20615;-74
2022/12/24 03:36:10;;;;;;;3.45;1.58;;;;;;;8.88;100.00;95139.66;5055001;28;20083;-74
2022/12/24 03:38:35;;;;;;;3.78;1.50;;;;;;;8.88;100.00;95160.66;5067955;28;20052;-73
2022/12/24 03:41:01;;;;;;;3.03;1.45;;;;;;;8.83;100.00;95158.84;5062790;28;20502;-74
2022/12/24 03:43:26;;;;;;;6.78;1.92;;;;;;;8.83;100.00;95167.53;5054829;28;20095;-74
2022/12/24 03:45:52;;;;;;;2.42;1.45;;;;;;;8.88;100.00;95174.59;5055329;28;20113;-74
2022/12/24 03:48:18;;;;;;;2.33;1.60;;;;;;;8.82;100.00;95173.81;5067466;28;20041;-74
2022/12/24 03:50:43;;;;;;;3.90;1.60;;;;;;;8.80;100.00;95170.66;5065089;28;20045;-74
2022/12/24 03:53:09;;;;;;;4.10;1.80;;;;;;;8.79;100.00;95174.34;5068152;28;20510;-74
2022/12/24 03:55:34;;;;;;;3.95;1.83;;;;;;;8.66;100.00;95159.13;5071947;28;20040;-74
2022/12/24 03:58:00;;;;;;;6.57;2.15;;;;;;;8.80;100.00;95154.91;5063623;28;20094;-74
2022/12/24 04:00:26;;;;;;;5.07;1.50;;;;;;;8.79;100.00;95153.34;5057858;28;20102;-74
2022/12/24 04:02:52;;;;;;;2.38;1.50;;;;;;;8.91;100.00;95175.91;5066118;28;20036;-74
2022/12/24 04:05:19;;;;;;;5.55;1.58;;;;;;;8.83;100.00;95180.63;5059750;28;20041;-74
2022/12/24 04:07:45;;;;;;;5.25;1.63;;;;;;;8.91;100.00;95181.16;5064713;28;20044;-74
2022/12/24 04:10:11;;;;;;;5.72;1.90;;;;;;;8.81;100.00;95187.97;5064291;28;20175;-74
2022/12/24 04:12:37;;;;;;;7.10;2.00;;;;;;;8.83;100.00;95183.25;5070303;28;20044;-74
2022/12/24 04:15:04;;;;;;;3.55;1.58;;;;;;;8.88;100.00;95189.53;5069036;28;20045;-74
2022/12/24 04:17:30;;;;;;;3.35;1.50;;;;;;;8.90;100.00;95192.69;5062620;28;20045;-74
2022/12/24 04:19:55;;;;;;;2.58;1.70;;;;;;;8.75;100.00;95196.91;5071824;28;20413;-74
2022/12/24 04:22:21;;;;;;;4.82;1.42;;;;;;;8.80;100.00;95212.63;5060825;28;20041;-74
2022/12/24 04:24:46;;;;;;;5.07;1.38;;;;;;;8.91;100.00;95202.13;5071128;28;20045;-73
2022/12/24 04:27:13;;;;;;;2.28;1.40;;;;;;;8.96;100.00;95202.13;5061546;28;20049;-74
2022/12/24 04:29:38;;;;;;;4.45;1.20;;;;;;;8.96;100.00;95209.97;5062003;28;20423;-73
2022/12/24 04:32:04;;;;;;;5.25;1.90;;;;;;;8.88;100.00;95207.91;5059425;28;20050;-74
2022/12/24 04:34:30;;;;;;;2.28;1.42;;;;;;;8.89;100.00;95219.97;5072166;28;20044;-74
2022/12/24 04:36:55;;;;;;;2.88;1.45;;;;;;;8.83;100.00;95227.88;5062204;28;20044;-74
2022/12/24 04:39:21;;;;;;;2.75;1.48;;;;;;;8.77;100.00;95228.91;5072687;28;20063;-74
2022/12/24 04:41:46;;;;;;;5.07;2.05;;;;;;;8.84;100.00;95218.94;5067007;28;20033;-73
2022/12/24 04:44:12;;;;;;;4.45;1.42;;;;;;;8.75;100.00;95220.53;5070261;28;20045;-74
2022/12/24 04:46:38;;;;;;;12.52;1.50;;;;;;;8.81;100.00;95214.22;5055430;28;20116;-74
2022/12/24 04:49:04;;;;;;;4.20;2.28;;;;;;;8.91;100.00;95217.88;5061428;28;20049;-74
2022/12/24 04:51:30;;;;;;;5.15;1.77;;;;;;;8.81;100.00;95235.19;5055527;28;20036;-74
2022/12/24 04:53:56;;;;;;;2.70;1.55;;;;;;;8.89;100.00;95235.72;5072348;28;20126;-74
2022/12/24 04:56:24;;;;;;;2.15;1.40;;;;;;;8.86;100.00;95241.50;5065168;28;20049;-74
2022/12/24 04:58:50;;;;;;;6.82;1.55;;;;;;;8.69;100.00;95241.78;5062700;28;20472;-74
2022/12/24 05:01:19;;;;;;;4.55;1.40;;;;;;;8.81;100.00;95245.69;5066235;28;20048;-74
2022/12/24 05:03:45;;;;;;;3.42;1.70;;;;;;;8.65;100.00;95241.53;5068924;28;20049;-74
2022/12/24 05:06:13;;;;;;;5.47;1.65;;;;;;;8.58;100.00;95246.25;5057925;28;20060;-74
2022/12/24 05:08:39;;;;;;;5.65;1.58;;;;;;;8.62;100.00;95242.03;5069567;28;20752;-74
2022/12/24 05:11:06;;;;;;;3.55;1.50;;;;;;;8.65;100.00;95241.53;5070051;28;20040;-74
2022/12/24 05:13:32;;;;;;;6.88;1.70;;;;;;;8.58;100.00;95241.00;5054088;28;20080;-74
2022/12/24 05:15:57;;;;;;;3.33;1.30;;;;;;;8.69;100.00;95242.53;5064665;28;20546;-74
2022/12/24 05:18:23;;;;;;;3.95;1.35;;;;;;;8.74;100.00;95239.94;5055573;28;20098;-74
2022/12/24 05:20:49;;;;;;;3.40;1.23;;;;;;;8.71;100.00;95250.19;5063754;28;20048;-74
2022/12/24 05:26:23;;;;;;;3.70;1.38;;;;;;;8.76;100.00;95253.56;5085044;28;20053;-73
2022/12/24 05:28:54;;;;;;;4.70;1.58;;;;;;;8.77;100.00;95260.38;5092806;28;20063;-72
2022/12/24 05:31:21;;;;;;;2.92;1.17;;;;;;;8.65;100.00;95262.50;5095401;28;20028;-72
2022/12/24 05:33:47;;;;;;;5.47;1.60;;;;;;;8.60;100.00;95259.88;5080672;28;20060;-72
2022/12/24 05:36:14;;;;;;;2.08;1.17;;;;;;;8.58;100.00;95259.38;5079179;28;20089;-72
2022/12/24 05:38:40;;;;;;;4.30;1.42;;;;;;;8.57;100.00;95255.16;5087692;28;20047;-72
2022/12/24 05:41:06;;;;;;;6.78;1.60;;;;;;;8.53;100.00;95254.09;5081352;28;20033;-73
2022/12/24 05:43:31;;;;;;;3.00;1.35;;;;;;;8.43;100.00;95255.66;5084338;28;20031;-72
2022/12/24 05:45:58;;;;;;;5.45;1.25;;;;;;;8.58;100.00;95268.00;5093466;28;20049;-72
2022/12/24 05:48:24;;;;;;;6.85;1.65;;;;;;;8.57;100.00;95270.91;5069167;28;20098;-73
2022/12/24 05:50:50;;;;;;;3.58;1.15;;;;;;;8.58;100.00;95277.72;5068079;28;20068;-74
2022/12/24 05:53:15;;;;;;;1.95;1.27;;;;;;;8.62;100.00;95278.75;5057447;28;20048;-74
2022/12/24 05:55:41;;;;;;;2.80;1.52;;;;;;;8.69;100.00;95278.50;5071098;28;20094;-74
2022/12/24 05:58:06;;;;;;;3.75;1.48;;;;;;;8.66;100.00;95287.69;5065685;28;20055;-73
2022/12/24 06:00:32;;;;;;;3.20;1.20;;;;;;;8.66;100.00;95279.81;5058882;28;20072;-74
2022/12/24 06:02:57;;;;;;;3.78;1.42;;;;;;;8.66;100.00;95269.31;5064305;28;20410;-74
2022/12/24 06:05:23;;;;;;;4.13;1.35;;;;;;;8.74;100.00;95281.13;5067914;28;20573;-73
2022/12/24 06:07:49;;;;;;;4.43;1.65;;;;;;;8.71;100.00;95285.06;5060012;28;20044;-74
2022/12/24 06:10:14;;;;;;;5.22;1.75;;;;;;;8.66;100.00;95292.91;5066867;28;20175;-74
2022/12/24 06:12:40;;;;;;;6.07;1.60;;;;;;;8.61;100.00;95309.44;5066853;28;20051;-74
2022/12/24 06:15:06;;;;;;;4.47;1.33;;;;;;;8.60;100.00;95301.84;5059902;28;20119;-74
2022/12/24 06:17:32;;;;;;;2.58;1.48;;;;;;;8.52;100.00;95315.47;5063856;28;20051;-74
2022/12/24 06:19:58;;;;;;;2.28;1.30;;;;;;;8.58;100.00;95317.06;5065067;28;20044;-74
2022/12/24 06:22:23;;;;;;;4.40;1.33;;;;;;;8.54;100.00;95313.38;5065506;28;20055;-74
2022/12/24 06:24:49;;;;;;;4.22;1.38;;;;;;;8.65;100.00;95325.47;5069250;28;20075;-74
2022/12/24 06:27:14;;;;;;;3.58;1.40;;;;;;;8.55;100.00;95315.75;5056351;28;20433;-74
2022/12/24 06:29:40;;;;;;;4.18;1.23;;;;;;;8.49;100.00;95306.28;5066471;28;22056;-74
2022/12/24 06:32:05;;;;;;;1.98;1.10;;;;;;;8.53;100.00;95306.56;5059677;28;20041;-74
2022/12/24 06:34:31;;;;;;;2.80;1.00;;;;;;;8.51;100.00;95308.66;5065136;28;20742;-74
2022/12/24 06:36:56;;;;;;;3.10;1.00;;;;;;;8.44;100.00;95309.69;5068623;28;20067;-74
2022/12/24 06:39:22;;;;;;;1.40;1.02;;;;;;;8.45;100.00;95311.28;5057756;28;20045;-74
2022/12/24 06:41:47;;;;;;;0.93;0.82;;;;;;;8.52;100.00;95315.47;5056781;28;20082;-74
2022/12/24 06:44:13;;;;;;;4.00;0.95;;;;;;;8.39;100.00;95328.03;5070348;28;20110;-74
2022/12/24 06:46:38;;;;;;;0.98;0.70;;;;;;;8.42;100.00;95331.94;5062905;28;20044;-74
2022/12/24 06:49:05;;;;;;;1.83;0.90;;;;;;;8.36;100.00;95328.53;5064327;28;20083;-74
2022/12/24 06:51:30;;;;;;;1.98;0.80;;;;;;;8.31;100.00;95336.38;5068088;28;20064;-74
2022/12/24 06:53:56;;;;;;;1.05;0.88;;;;;;;8.33;100.00;95329.03;5065765;28;20467;-74
2022/12/24 06:56:21;;;;;;;2.72;0.85;;;;;;;8.35;100.00;95337.44;5052194;28;20044;-75
2022/12/24 06:58:47;;;;;;;1.52;0.85;;;;;;;8.08;100.00;95343.66;5068867;28;20646;-74
2022/12/24 07:01:16;;;;;;;2.47;1.00;;;;;;;8.06;100.00;95350.19;5064425;28;20044;-74
2022/12/24 07:03:42;;;;;;;0.50;0.50;;;;;;;8.23;100.00;95358.66;5059821;28;20167;-73
2022/12/24 07:06:18;;;;;;;2.30;0.80;;;;;;;8.28;100.00;95357.88;5060532;28;20507;-73
2022/12/24 07:08:44;;;;;;;0.63;0.60;;;;;;;8.23;100.00;95344.75;5069396;28;20121;-74
2022/12/24 07:11:09;;;;;;;1.90;0.73;;;;;;;8.12;100.00;95338.69;5064704;28;20048;-74
2022/12/24 07:13:35;;;;;;;0.93;0.70;;;;;;;8.10;100.00;95352.06;5065943;28;20387;-73
2022/12/24 07:16:02;;;;;;;0.68;0.68;;;;;;;7.99;100.00;95350.44;5069998;28;20110;-74
2022/12/24 07:18:28;;;;;;;1.60;0.80;;;;;;;7.94;100.00;95353.03;5059032;28;20044;-74
2022/12/24 07:20:54;;;;;;;1.10;0.68;;;;;;;7.91;100.00;95358.78;5064705;28;20037;-74
2022/12/24 07:23:19;;;;;;;1.75;0.85;;;;;;;8.05;100.00;95353.88;5068247;28;20417;-74
2022/12/24 07:25:45;;;;;;;1.33;0.70;;;;;;;8.01;100.00;95364.06;5062301;28;20094;-74
2022/12/24 07:28:10;;;;;;;0.63;0.50;;;;;;;7.92;100.00;95363.00;5057295;28;20044;-74
2022/12/24 07:30:36;;;;;;;1.40;0.70;;;;;;;7.98;100.00;95364.59;5068698;28;20456;-74
2022/12/24 07:33:02;;;;;;;1.35;0.70;;;;;;;7.95;100.00;95375.59;5062275;28;20040;-74
2022/12/24 07:35:27;;;;;;;2.80;0.70;;;;;;;7.85;100.00;95375.53;5065087;28;20094;-74
2022/12/24 07:37:53;;;;;;;2.03;1.00;;;;;;;7.87;100.00;95368.19;5068349;28;20072;-74
2022/12/24 07:40:18;;;;;;;1.70;0.85;;;;;;;7.92;100.00;95366.41;5067701;28;20491;-74
2022/12/24 07:42:44;;;;;;;0.93;0.50;;;;;;;7.96;100.00;95377.16;5062908;28;20052;-76
2022/12/24 07:45:10;;;;;;;1.25;0.80;;;;;;;7.92;100.00;95381.34;5061039;28;20098;-75
2022/12/24 07:47:35;;;;;;;1.20;0.57;;;;;;;8.04;100.00;95388.97;5066116;28;20115;-74
2022/12/24 07:50:02;;;;;;;1.48;1.02;;;;;;;7.92;100.00;95397.06;5063697;28;20406;-73
2022/12/24 07:52:28;;;;;;;1.02;0.77;;;;;;;7.87;100.00;95404.88;5059971;28;20509;-74
2022/12/24 07:54:53;;;;;;;2.67;1.10;;;;;;;7.93;100.00;95398.63;5060233;28;20045;-74
2022/12/24 07:57:19;;;;;;;2.33;0.73;;;;;;;7.89;100.00;95405.44;5067673;28;20044;-74
2022/12/24 07:59:44;;;;;;;3.85;0.60;;;;;;;7.98;100.00;95422.25;5067706;28;20037;-74
2022/12/24 08:02:10;;;;;;;2.15;1.23;;;;;;;7.94;100.00;95415.91;5064339;28;20414;-74
2022/12/24 08:04:36;;;;;;;1.30;0.65;;;;;;;7.90;100.00;95426.13;5062210;28;20501;-74
2022/12/24 08:07:03;;;;;;;2.30;1.10;;;;;;;7.97;100.00;95426.69;5057960;28;22425;-74
2022/12/24 08:09:31;;;;;;;1.75;0.95;;;;;;;7.96;100.00;95429.56;5060838;28;20041;-74
2022/12/24 08:11:57;;;;;;;3.53;1.00;;;;;;;7.91;100.00;95432.16;5059433;28;20033;-75
2022/12/24 08:14:22;;;;;;;2.55;0.80;;;;;;;7.91;100.00;95447.88;5064037;28;20044;-74
2022/12/24 08:16:48;;;;;;;2.60;0.68;;;;;;;7.94;100.00;95436.88;5066163;28;20051;-74
2022/12/24 08:19:13;;;;;;;1.48;0.80;;;;;;;7.91;100.00;95453.13;5059297;28;20055;-74
2022/12/24 08:21:39;;;;;;;1.92;0.80;;;;;;;7.94;100.00;95455.22;5048277;28;20819;-74
2022/12/24 08:24:05;;;;;;;0.70;0.70;;;;;;;7.93;100.00;95461.50;5062951;28;20044;-74
2022/12/24 08:26:30;;;;;;;0.60;0.60;;;;;;;7.91;100.00;95468.84;5078281;28;20040;-74
2022/12/24 08:28:56;;;;;;;0.90;0.70;;;;;;;7.90;100.00;95472.50;5059658;28;20063;-74
2022/12/24 08:31:22;;;;;;;1.23;0.60;;;;;;;7.87;100.00;95462.53;5047980;28;20049;-74
2022/12/24 08:33:47;;;;;;;3.45;1.20;;;;;;;7.87;100.00;95465.13;5069315;28;20490;-74
2022/12/24 08:36:13;;;;;;;1.85;0.73;;;;;;;7.94;100.00;95471.75;5065888;28;20128;-74
2022/12/24 08:38:38;;;;;;;0.77;0.70;;;;;;;7.83;100.00;95461.44;5059455;28;20423;-74
2022/12/24 08:41:04;;;;;;;1.92;1.00;;;;;;;7.91;100.00;95453.13;5072837;28;20045;-74
2022/12/24 08:43:30;;;;;;;1.95;0.73;;;;;;;7.95;100.00;95464.69;5057998;28;20048;-74
2022/12/24 08:46:01;;;;;;;0.57;0.47;;;;;;;7.98;100.00;95469.41;5066799;28;20121;-74
2022/12/24 08:48:26;;;;;;;1.65;0.63;;;;;;;7.91;100.00;95468.84;5062651;28;20041;-74
2022/12/24 08:50:52;;;;;;;0.75;0.55;;;;;;;7.90;100.00;95473.31;5062351;28;20044;-74
2022/12/24 08:53:17;;;;;;;2.28;0.90;;;;;;;7.93;100.00;95483.28;5061761;28;20037;-74
2022/12/24 08:55:43;;;;;;;1.55;0.90;;;;;;;7.89;100.00;95481.41;5070978;28;20498;-74
2022/12/24 08:58:08;;;;;;;2.33;1.00;;;;;;;7.93;100.00;95485.09;5061799;28;20407;-75
2022/12/24 09:00:34;;;;;;;2.33;0.80;;;;;;;7.92;100.00;95480.91;5070691;28;20044;-75
2022/12/24 09:02:59;;;;;;;6.47;1.13;;;;;;;7.94;100.00;95494.53;5066338;28;20525;-75
2022/12/24 09:05:25;;;;;;;0.95;0.80;;;;;;;8.00;100.00;95498.75;5060806;28;20094;-74
2022/12/24 09:07:50;;;;;;;0.52;0.50;;;;;;;8.01;100.00;95505.59;5057034;28;20079;-73
2022/12/24 09:10:16;;;;;;;2.53;0.80;;;;;;;8.05;100.00;95511.91;5072637;28;20041;-74
2022/12/24 09:12:41;;;;;;;0.80;0.75;;;;;;;8.02;100.00;95511.63;5063791;28;20676;-74
2022/12/24 09:15:08;;;;;;;1.90;0.70;;;;;;;8.07;100.00;95515.06;5067168;28;20085;-74
2022/12/24 09:17:34;;;;;;;2.65;1.20;;;;;;;8.05;100.00;95516.38;5064776;28;20067;-74
2022/12/24 09:20:00;;;;;;;1.80;0.88;;;;;;;8.08;100.00;95527.13;5065415;28;20040;-74
2022/12/24 09:22:25;;;;;;;3.72;1.13;;;;;;;8.10;100.00;95530.28;5058556;28;20418;-73
2022/12/24 09:24:54;;;;;;;1.90;0.70;;;;;;;8.13;100.00;95535.03;5071101;28;20498;-74
2022/12/24 09:27:20;;;;;;;3.05;0.90;;;;;;;8.20;100.00;95529.53;5070684;28;20041;-74
2022/12/24 09:29:45;;;;;;;0.63;0.57;;;;;;;8.23;100.00;95539.56;5062459;28;20086;-75
2022/12/24 09:32:11;;;;;;;2.58;0.60;;;;;;;8.20;100.00;95534.00;5062494;28;20080;-75
2022/12/24 09:34:37;;;;;;;6.28;1.52;;;;;;;8.19;100.00;95527.19;5058143;28;20041;-75
2022/12/24 09:37:03;;;;;;;1.67;1.00;;;;;;;8.17;100.00;95534.53;5068486;28;20106;-74
2022/12/24 09:39:28;;;;;;;3.00;0.80;;;;;;;8.18;100.00;95534.25;5077818;28;20106;-75
2022/12/24 09:42:18;;;;;;;1.05;0.77;;;;;;;8.22;100.00;95532.72;5071101;28;20490;-75
2022/12/24 09:44:59;;;;;;;2.22;0.80;;;;;;;8.21;100.00;95540.84;5061084;28;20052;-75
2022/12/24 09:47:32;;;;;;;3.00;1.15;;;;;;;8.21;100.00;95530.34;5069354;28;20486;-75
2022/12/24 09:50:02;;;;;;;3.40;0.93;;;;;;;8.21;100.00;95540.84;5064675;28;20044;-75
2022/12/24 09:52:40;;;;;;;3.92;1.10;;;;;;;8.19;100.00;95532.41;5071400;28;20093;-76
2022/12/24 09:55:21;;;;;;;5.93;1.00;;;;;;;8.24;100.00;95535.09;5069824;28;20184;-75
2022/12/24 09:57:50;;;;;;;2.75;0.70;;;;;;;8.25;100.00;95541.91;5067103;28;20070;-75
2022/12/24 10:00:24;;;;;;;3.67;0.85;;;;;;;8.21;100.00;95535.59;5066129;28;20087;-76
2022/12/24 10:02:50;;;;;;;0.82;0.73;;;;;;;8.27;100.00;95534.56;5051472;28;20040;-76
2022/12/24 10:05:22;;;;;;;2.30;1.08;;;;;;;8.29;100.00;95532.50;5068004;28;20123;-76
2022/12/24 10:08:07;;;;;;;2.15;0.77;;;;;;;8.25;100.00;95526.97;5052775;28;20048;-75
2022/12/24 10:10:41;;;;;;;1.65;0.68;;;;;;;8.24;100.00;95524.59;5068399;28;20048;-76
2022/12/24 10:13:21;;;;;;;2.17;0.60;;;;;;;8.29;100.00;95537.75;5065925;28;20063;-75
2022/12/24 10:16:02;;;;;;;1.90;0.93;;;;;;;8.32;100.00;95532.78;5061610;28;20037;-75
2022/12/24 10:18:49;;;;;;;2.17;0.98;;;;;;;8.37;100.00;95529.38;5064619;28;20072;-75
2022/12/24 10:21:27;;;;;;;1.45;0.70;;;;;;;8.43;100.00;95527.56;5071077;28;20036;-75
2022/12/24 10:24:08;;;;;;;2.53;0.75;;;;;;;8.54;100.00;95528.47;5063290;28;20072;-75
2022/12/24 10:26:39;;;;;;;5.80;0.93;;;;;;;8.65;100.00;95530.09;5070443;28;20036;-75
2022/12/24 10:29:17;;;;;;;1.52;0.88;;;;;;;8.59;100.00;95536.34;5063076;28;20045;-73
2022/12/24 10:32:08;;;;;;;2.22;0.90;;;;;;;8.67;100.00;95534.00;5067382;28;20090;-75
2022/12/24 10:34:43;;;;;;;5.45;2.13;;;;;;;8.53;100.00;95542.63;5068872;28;20087;-75
2022/12/24 10:37:15;;;;;;;0.70;0.60;;;;;;;8.53;100.00;95540.00;5053968;28;20099;-75
2022/12/24 10:39:41;;;;;;;0.90;0.70;;;;;;;8.58;100.00;95540.03;5064380;28;20041;-75
2022/12/24 10:42:08;;;;;;;3.58;1.05;;;;;;;8.56;100.00;95542.09;5070782;28;20041;-75
2022/12/24 10:44:33;;;;;;;1.48;0.80;;;;;;;8.63;100.00;95532.16;5070034;28;20052;-76
2022/12/24 10:46:59;;;;;;;1.90;0.77;;;;;;;8.60;100.00;95522.19;5064380;28;20040;-76
2022/12/24 10:49:47;;;;;;;1.73;0.60;;;;;;;8.57;100.00;95520.06;5058331;28;20037;-76
2022/12/24 10:52:18;;;;;;;3.58;0.70;;;;;;;8.61;100.00;95532.41;5071360;28;20048;-75
2022/12/24 10:55:18;;;;;;;2.92;0.82;;;;;;;8.52;100.00;95535.78;5070392;28;20044;-76
2022/12/24 10:57:59;;;;;;;0.95;0.60;;;;;;;8.53;100.00;95524.25;5063190;28;20762;-74
2022/12/24 11:00:25;;;;;;;0.73;0.55;;;;;;;8.63;100.00;95526.91;5066875;28;20040;-73
2022/12/24 11:03:19;;;;;;;2.58;0.88;;;;;;;8.69;100.00;95541.63;5066219;28;20468;-75
2022/12/24 11:05:44;;;;;;;7.03;0.88;;;;;;;8.91;100.00;95538.06;5063834;28;20098;-74
2022/12/24 11:08:16;;;;;;;4.38;1.48;;;;;;;8.93;100.00;95530.72;5056397;28;20046;-75
2022/12/24 11:10:52;;;;;;;3.38;1.25;;;;;;;9.00;100.00;95536.50;5070953;28;20066;-74
2022/12/24 11:13:30;;;;;;;1.13;0.80;;;;;;;9.35;100.00;95532.38;5057042;28;20047;-75
2022/12/24 11:16:25;;;;;;;3.65;1.45;;;;;;;10.56;100.00;95529.16;5062079;28;20071;-74
2022/12/24 11:18:54;;;;;;;4.68;0.80;;;;;;;12.08;93.69;95534.06;5053880;28;20044;-74
2022/12/24 11:21:25;;;;;;;3.67;1.52;;;;;;;12.10;95.64;95537.22;5057647;28;20078;-74
2022/12/24 11:23:56;;;;;;;3.95;1.35;;;;;;;12.99;89.47;95531.50;5065010;28;20037;-74
2022/12/24 11:26:24;;;;;;;2.47;0.90;;;;;;;13.54;80.56;95524.97;5068735;28;20044;-75
2022/12/24 11:29:12;;;;;;;4.32;0.98;;;;;;;11.43;89.23;95529.78;5062247;28;20094;-74
2022/12/24 11:31:37;;;;;;;3.10;1.15;;;;;;;12.32;85.47;95530.69;5065060;28;20037;-75
2022/12/24 11:34:23;;;;;;;2.35;0.70;;;;;;;12.20;85.25;95520.50;5064283;28;20102;-74
2022/12/24 11:36:50;;;;;;;2.72;0.82;;;;;;;11.95;85.53;95515.19;5054708;28;20044;-74
2022/12/24 11:39:22;;;;;;;3.97;0.88;;;;;;;11.24;93.08;95522.53;5070551;28;20049;-75
2022/12/24 11:41:49;;;;;;;1.35;0.77;;;;;;;10.73;100.00;95522.75;5069260;28;20044;-75
2022/12/24 11:44:24;;;;;;;3.53;0.90;;;;;;;10.39;100.00;95526.06;5064819;28;20044;-74
2022/12/24 11:46:55;;;;;;;4.60;1.40;;;;;;;10.22;100.00;95513.94;5050140;28;20102;-75
2022/12/24 11:49:27;;;;;;;2.47;0.88;;;;;;;10.10;100.00;95516.09;5060630;28;20040;-75